createdAt,value
2023-05-21T00:01:48.508Z,7.70
2023-05-21T00:04:15.710Z,8.70
2023-05-21T00:06:42.593Z,8.65
2023-05-21T00:09:09.602Z,8.70
2023-05-21T00:11:36.503Z,8.45
2023-05-21T00:14:03.441Z,8.27
2023-05-21T00:16:30.477Z,9.80
2023-05-21T00:18:58.156Z,9.50
2023-05-21T00:21:26.055Z,8.45
2023-05-21T00:23:56.820Z,8.25
2023-05-21T00:26:26.586Z,8.60
2023-05-21T00:28:57.082Z,8.88
2023-05-21T00:31:24.111Z,7.63
2023-05-21T00:33:51.102Z,8.65
2023-05-21T00:36:18.007Z,12.73
2023-05-21T00:38:45.692Z,9.30
2023-05-21T00:41:12.816Z,11.05
2023-05-21T00:43:42.460Z,7.53
2023-05-21T00:46:16.580Z,10.25
2023-05-21T00:48:47.326Z,8.80
2023-05-21T00:51:14.529Z,8.07
2023-05-21T00:53:41.559Z,9.07
2023-05-21T00:56:08.574Z,7.97
2023-05-21T00:58:35.454Z,8.95
2023-05-21T01:01:06.942Z,11.18
2023-05-21T01:03:38.520Z,7.80
2023-05-21T01:08:35.001Z,8.93
2023-05-21T01:11:04.773Z,9.48
2023-05-21T01:13:31.877Z,10.25
2023-05-21T01:15:59.270Z,8.63
2023-05-21T01:18:26.245Z,8.48
2023-05-21T01:20:53.726Z,9.57
2023-05-21T01:23:20.947Z,10.90
2023-05-21T01:25:47.868Z,10.98
2023-05-21T01:28:14.744Z,9.77
2023-05-21T01:30:42.193Z,11.68
2023-05-21T01:33:21.253Z,11.18
2023-05-21T01:35:58.530Z,11.20
2023-05-21T01:38:41.423Z,9.20
2023-05-21T01:43:39.221Z,11.40
2023-05-21T01:46:06.565Z,11.25
2023-05-21T01:48:33.459Z,10.18
2023-05-21T01:51:01.964Z,11.32
2023-05-21T01:53:28.929Z,10.93
2023-05-21T01:55:55.931Z,10.80
2023-05-21T01:58:24.190Z,10.40
2023-05-21T02:00:51.204Z,10.52
2023-05-21T02:03:19.407Z,8.80
2023-05-21T02:05:47.119Z,8.90
2023-05-21T02:08:15.310Z,12.30
2023-05-21T02:10:42.355Z,11.13
2023-05-21T02:13:09.252Z,12.02
2023-05-21T02:15:36.392Z,10.07
2023-05-21T02:18:03.988Z,13.95
2023-05-21T02:20:31.364Z,10.80
2023-05-21T02:22:58.316Z,13.25
2023-05-21T02:25:25.169Z,12.95
2023-05-21T02:27:56.752Z,12.52
2023-05-21T02:30:23.904Z,9.43
2023-05-21T02:32:50.874Z,9.50
2023-05-21T02:35:17.859Z,13.98
2023-05-21T02:37:44.781Z,11.48
2023-05-21T02:40:11.937Z,13.00
2023-05-21T02:42:40.269Z,11.10
2023-05-21T02:45:10.102Z,13.55
2023-05-21T02:47:38.694Z,10.82
2023-05-21T02:50:08.297Z,13.15
2023-05-21T02:52:41.828Z,14.30
2023-05-21T02:55:09.982Z,12.93
2023-05-21T02:57:36.931Z,11.57
2023-05-21T03:00:06.107Z,15.90
2023-05-21T03:02:33.924Z,12.27
2023-05-21T03:05:00.929Z,12.75
2023-05-21T03:07:27.822Z,13.88
2023-05-21T03:09:55.043Z,13.02
2023-05-21T03:12:21.985Z,15.18
2023-05-21T03:14:51.273Z,16.55
2023-05-21T03:17:18.932Z,11.20
2023-05-21T03:19:45.798Z,11.43
2023-05-21T03:22:12.767Z,13.45
2023-05-21T03:24:39.889Z,14.35
2023-05-21T03:27:07.169Z,14.05
2023-05-21T03:29:34.700Z,15.38
2023-05-21T03:32:02.980Z,11.70
2023-05-21T03:34:31.331Z,14.18
2023-05-21T03:36:59.028Z,11.35
2023-05-21T03:39:26.847Z,12.95
2023-05-21T03:41:55.828Z,14.07
2023-05-21T03:44:34.700Z,12.98
2023-05-21T03:47:15.505Z,13.68
2023-05-21T03:49:42.966Z,14.90
2023-05-21T03:52:19.173Z,14.98
2023-05-21T03:54:49.003Z,13.65
2023-05-21T03:57:15.944Z,13.25
2023-05-21T03:59:43.746Z,15.85
2023-05-21T04:02:10.777Z,13.70
2023-05-21T04:04:37.949Z,15.13
2023-05-21T04:07:05.487Z,10.68
2023-05-21T04:09:32.718Z,12.23
2023-05-21T04:12:00.398Z,14.90
2023-05-21T04:14:27.321Z,14.80
2023-05-21T04:16:54.203Z,14.65
2023-05-21T04:19:21.981Z,14.05
2023-05-21T04:21:49.687Z,15.13
2023-05-21T04:24:16.681Z,18.63
2023-05-21T04:27:02.292Z,14.13
2023-05-21T04:29:31.840Z,15.45
2023-05-21T04:31:58.928Z,12.75
2023-05-21T04:34:25.907Z,14.60
2023-05-21T04:36:52.791Z,15.82
2023-05-21T04:39:19.713Z,18.38
2023-05-21T04:41:49.128Z,13.45
2023-05-21T04:44:16.035Z,15.75
2023-05-21T04:46:46.105Z,17.15
2023-05-21T04:49:13.693Z,11.60
2023-05-21T04:51:40.757Z,12.15
2023-05-21T04:54:08.009Z,14.43
2023-05-21T04:56:35.458Z,15.13
2023-05-21T04:59:05.328Z,16.17
2023-05-21T05:01:35.384Z,15.27
2023-05-21T05:04:02.515Z,14.40
2023-05-21T05:06:30.216Z,18.25
2023-05-21T05:08:57.204Z,14.05
2023-05-21T05:11:25.170Z,14.50
2023-05-21T05:13:52.565Z,16.45
2023-05-21T05:16:25.043Z,17.45
2023-05-21T05:18:52.855Z,17.92
2023-05-21T05:21:21.659Z,15.38
2023-05-21T05:23:48.620Z,16.55
2023-05-21T05:26:15.555Z,15.68
2023-05-21T05:28:42.663Z,17.13
2023-05-21T05:31:09.804Z,16.88
2023-05-21T05:33:36.841Z,15.20
2023-05-21T05:36:04.036Z,16.80
2023-05-21T05:38:31.236Z,17.75
2023-05-21T05:40:58.190Z,16.70
2023-05-21T05:43:26.417Z,16.10
2023-05-21T05:45:53.579Z,13.40
2023-05-21T05:48:20.600Z,13.98
2023-05-21T05:50:47.994Z,15.93
2023-05-21T05:53:15.246Z,17.45
2023-05-21T05:55:42.115Z,13.27
2023-05-21T05:58:09.026Z,15.38
2023-05-21T06:00:48.624Z,15.40
2023-05-21T06:03:15.890Z,15.07
2023-05-21T06:05:43.287Z,17.40
2023-05-21T06:08:10.748Z,14.38
2023-05-21T06:10:37.651Z,15.40
2023-05-21T06:13:04.572Z,15.48
2023-05-21T06:15:31.450Z,15.35
2023-05-21T06:17:58.321Z,16.80
2023-05-21T06:20:25.216Z,15.43
2023-05-21T06:22:52.313Z,13.82
2023-05-21T06:25:19.338Z,12.25
2023-05-21T06:27:46.490Z,16.27
2023-05-21T06:30:19.570Z,15.68
2023-05-21T06:32:46.659Z,11.95
2023-05-21T06:35:13.843Z,11.50
2023-05-21T06:37:41.024Z,13.50
2023-05-21T06:40:08.615Z,13.85
2023-05-21T06:42:36.364Z,14.95
2023-05-21T06:45:35.473Z,14.30
2023-05-21T06:48:12.196Z,11.93
2023-05-21T06:50:39.238Z,12.05
2023-05-21T06:53:08.034Z,13.20
2023-05-21T06:55:35.772Z,10.93
2023-05-21T06:58:25.941Z,11.98
2023-05-21T07:00:52.916Z,14.18
2023-05-21T07:03:20.645Z,11.68
2023-05-21T07:05:47.768Z,12.18
2023-05-21T07:08:15.556Z,12.30
2023-05-21T07:10:42.604Z,14.85
2023-05-21T07:13:09.652Z,14.02
2023-05-21T07:15:38.052Z,11.90
2023-05-21T07:18:05.396Z,12.73
2023-05-21T07:20:32.334Z,13.30
2023-05-21T07:23:05.597Z,12.00
2023-05-21T07:25:32.636Z,13.50
2023-05-21T07:27:59.672Z,12.50
2023-05-21T07:30:26.689Z,10.13
2023-05-21T07:32:53.995Z,11.70
2023-05-21T07:35:21.138Z,11.80
2023-05-21T07:37:48.885Z,12.82
2023-05-21T07:40:15.865Z,12.18
2023-05-21T07:42:43.655Z,13.68
2023-05-21T07:45:12.490Z,10.82
2023-05-21T07:47:43.112Z,11.15
2023-05-21T07:50:10.782Z,10.18
2023-05-21T07:52:37.843Z,11.15
2023-05-21T07:55:06.447Z,8.40
2023-05-21T07:57:35.893Z,9.82
2023-05-21T08:00:09.725Z,12.40
2023-05-21T08:02:42.138Z,9.15
2023-05-21T08:05:11.657Z,10.13
2023-05-21T08:07:38.643Z,10.23
2023-05-21T08:10:06.377Z,8.10
2023-05-21T08:12:33.288Z,9.60
2023-05-21T08:15:00.610Z,10.35
2023-05-21T08:17:28.557Z,11.15
2023-05-21T08:19:55.761Z,9.70
2023-05-21T08:22:22.954Z,9.07
2023-05-21T08:24:50.106Z,8.25
2023-05-21T08:27:16.962Z,8.65
2023-05-21T08:29:44.736Z,8.70
2023-05-21T08:32:11.788Z,8.73
2023-05-21T08:34:39.087Z,7.22
2023-05-21T08:37:29.507Z,10.52
2023-05-21T08:40:29.557Z,7.00
2023-05-21T08:42:57.529Z,8.55
2023-05-21T08:45:38.544Z,8.27
2023-05-21T08:48:06.332Z,6.60
2023-05-21T08:50:34.726Z,7.63
2023-05-21T08:53:15.871Z,7.45
2023-05-21T08:55:52.730Z,7.15
2023-05-21T08:58:20.430Z,9.05
2023-05-21T09:00:47.384Z,7.20
2023-05-21T09:03:17.997Z,7.75
2023-05-21T09:05:46.067Z,8.30
2023-05-21T09:08:19.892Z,5.93
2023-05-21T09:11:06.110Z,6.93
2023-05-21T09:13:42.417Z,7.28
2023-05-21T09:16:15.246Z,8.25
2023-05-21T09:18:43.196Z,7.53
2023-05-21T09:21:26.581Z,5.68
2023-05-21T09:24:00.317Z,7.78
2023-05-21T09:26:27.225Z,7.68
2023-05-21T09:29:01.611Z,6.88
2023-05-21T09:31:29.274Z,5.97
2023-05-21T09:33:56.377Z,7.93
2023-05-21T09:36:25.150Z,8.00
2023-05-21T09:38:52.408Z,7.57
2023-05-21T09:41:21.801Z,6.47
2023-05-21T09:43:49.542Z,6.60
2023-05-21T09:46:16.850Z,5.85
2023-05-21T09:48:43.839Z,7.90
2023-05-21T09:51:18.899Z,7.20
2023-05-21T09:53:48.803Z,7.03
2023-05-21T09:56:15.694Z,7.85
2023-05-21T09:58:42.621Z,6.85
2023-05-21T10:01:11.144Z,6.55
2023-05-21T10:03:39.840Z,7.25
2023-05-21T10:06:08.959Z,7.50
2023-05-21T10:08:37.418Z,7.25
2023-05-21T10:11:07.372Z,7.55
2023-05-21T10:13:35.481Z,6.53
2023-05-21T10:16:05.378Z,7.65
2023-05-21T10:18:32.481Z,7.82
2023-05-21T10:20:59.347Z,6.45
2023-05-21T10:23:26.170Z,7.25
2023-05-21T10:25:53.211Z,7.22
2023-05-21T10:28:20.075Z,7.32
2023-05-21T10:30:46.962Z,5.68
2023-05-21T10:33:17.600Z,6.07
2023-05-21T10:35:45.658Z,7.00
2023-05-21T10:38:12.904Z,6.00
2023-05-21T10:40:40.015Z,6.75
2023-05-21T10:43:21.958Z,5.18
2023-05-21T10:45:54.038Z,6.65
2023-05-21T10:51:10.782Z,8.30
2023-05-21T10:53:43.028Z,6.80
2023-05-21T10:56:30.809Z,8.23
2023-05-21T10:59:08.073Z,7.40
2023-05-21T11:01:36.695Z,7.13
2023-05-21T11:04:06.706Z,6.47
2023-05-21T11:06:33.683Z,7.90
2023-05-21T11:09:14.778Z,6.32
2023-05-21T11:11:46.264Z,7.47
2023-05-21T11:14:43.105Z,12.00
2023-05-21T11:17:11.291Z,6.57
2023-05-21T11:19:41.313Z,7.25
2023-05-21T11:22:21.613Z,7.63
2023-05-21T11:24:51.211Z,7.55
2023-05-21T11:27:30.774Z,8.80
2023-05-21T11:29:57.741Z,8.85
2023-05-21T11:32:24.571Z,7.85
2023-05-21T11:34:51.712Z,8.68
2023-05-21T11:37:18.791Z,6.75
2023-05-21T11:39:45.847Z,7.75
2023-05-21T11:42:12.762Z,9.43
2023-05-21T11:44:47.760Z,9.13
2023-05-21T11:47:15.711Z,7.75
2023-05-21T11:49:42.521Z,8.55
2023-05-21T11:52:09.899Z,7.32
2023-05-21T11:54:48.407Z,8.95
2023-05-21T11:57:19.154Z,9.57
2023-05-21T11:59:46.931Z,7.35
2023-05-21T12:02:17.365Z,9.05
2023-05-21T12:04:45.246Z,8.23
2023-05-21T12:07:13.329Z,8.10
2023-05-21T12:09:40.863Z,8.27
2023-05-21T12:12:11.435Z,9.05
2023-05-21T12:14:38.332Z,6.72
2023-05-21T12:17:05.658Z,7.35
2023-05-21T12:19:35.950Z,9.73
2023-05-21T12:22:06.834Z,8.38
2023-05-21T12:24:34.137Z,8.00
2023-05-21T12:27:01.852Z,8.40
2023-05-21T12:29:32.072Z,8.70
2023-05-21T12:32:02.314Z,8.10
2023-05-21T12:34:46.226Z,7.95
2023-05-21T12:37:18.309Z,6.20
2023-05-21T12:39:45.864Z,7.50
2023-05-21T12:42:13.154Z,8.20
2023-05-21T12:44:49.010Z,7.97
2023-05-21T12:47:15.887Z,5.55
2023-05-21T12:49:44.767Z,8.30
2023-05-21T12:52:12.363Z,7.80
2023-05-21T12:54:40.283Z,7.20
2023-05-21T12:57:13.388Z,8.13
2023-05-21T13:00:00.009Z,8.55
2023-05-21T13:02:28.241Z,9.13
2023-05-21T13:04:58.444Z,11.30
2023-05-21T13:07:26.396Z,7.40
2023-05-21T13:09:53.694Z,8.70
2023-05-21T13:12:24.821Z,10.85
2023-05-21T13:14:52.588Z,8.40
2023-05-21T13:17:19.910Z,6.90
2023-05-21T13:20:09.488Z,9.02
2023-05-21T13:22:39.192Z,9.82
2023-05-21T13:25:07.140Z,10.65
2023-05-21T13:27:34.045Z,7.57
2023-05-21T13:30:02.014Z,9.75
2023-05-21T13:32:29.013Z,8.52
2023-05-21T13:34:55.961Z,9.00
2023-05-21T13:37:22.960Z,9.10
2023-05-21T13:39:50.096Z,11.10
2023-05-21T13:42:17.845Z,9.52
2023-05-21T13:44:44.681Z,7.95
2023-05-21T13:47:12.066Z,7.15
2023-05-21T13:49:39.091Z,10.55
2023-05-21T13:52:06.900Z,9.55
2023-05-21T13:54:33.812Z,10.73
2023-05-21T13:57:01.134Z,7.82
2023-05-21T13:59:28.054Z,8.02
2023-05-21T14:01:54.975Z,7.03
2023-05-21T14:04:21.836Z,8.25
2023-05-21T14:06:48.698Z,9.13
2023-05-21T14:09:15.898Z,8.23
2023-05-21T14:11:42.837Z,9.93
2023-05-21T14:14:09.703Z,11.32
2023-05-21T14:16:36.693Z,7.53
2023-05-21T14:19:03.811Z,9.35
2023-05-21T14:21:31.750Z,8.70
2023-05-21T14:23:58.635Z,8.30
2023-05-21T14:26:26.679Z,8.82
2023-05-21T14:28:53.611Z,8.40
2023-05-21T14:31:21.637Z,7.18
2023-05-21T14:33:48.656Z,6.90
2023-05-21T14:36:15.918Z,9.30
2023-05-21T14:38:42.841Z,7.82
2023-05-21T14:41:09.867Z,6.95
2023-05-21T14:43:36.769Z,8.50
2023-05-21T14:46:03.772Z,9.48
2023-05-21T14:48:30.635Z,8.75
2023-05-21T14:50:57.523Z,8.43
2023-05-21T14:53:24.421Z,8.57
2023-05-21T14:55:51.400Z,7.82
2023-05-21T14:58:18.251Z,8.68
2023-05-21T15:00:45.132Z,8.73
2023-05-21T15:03:12.955Z,8.05
2023-05-21T15:05:40.106Z,7.93
2023-05-21T15:08:08.103Z,9.57
2023-05-21T15:10:35.004Z,8.07
2023-05-21T15:13:02.041Z,9.75
2023-05-21T15:15:29.009Z,7.90
2023-05-21T15:17:57.767Z,8.23
2023-05-21T15:20:24.774Z,6.63
2023-05-21T15:22:54.902Z,6.88
2023-05-21T15:25:26.143Z,9.70
2023-05-21T15:27:53.057Z,9.02
2023-05-21T15:30:20.585Z,8.05
2023-05-21T15:32:47.396Z,8.55
2023-05-21T15:35:14.573Z,8.95
2023-05-21T15:37:43.479Z,8.85
2023-05-21T15:40:10.672Z,7.15
2023-05-21T15:42:37.548Z,8.43
2023-05-21T15:45:04.728Z,7.38
2023-05-21T15:47:31.583Z,8.75
2023-05-21T15:50:01.661Z,8.30
2023-05-21T15:52:28.472Z,10.10
2023-05-21T15:54:55.602Z,7.78
2023-05-21T15:57:22.470Z,8.07
2023-05-21T15:59:50.646Z,7.82
2023-05-21T16:02:17.576Z,8.80
2023-05-21T16:04:44.497Z,8.43
2023-05-21T16:07:11.397Z,10.05
2023-05-21T16:09:38.594Z,7.72
2023-05-21T16:12:05.878Z,9.15
2023-05-21T16:14:32.766Z,9.77
2023-05-21T16:16:59.752Z,9.10
2023-05-21T16:19:26.750Z,8.77
2023-05-21T16:21:53.753Z,8.13
2023-05-21T16:24:20.816Z,8.32
2023-05-21T16:26:49.456Z,7.95
2023-05-21T16:29:16.346Z,8.30
2023-05-21T16:31:43.309Z,9.70
2023-05-21T16:34:10.192Z,9.10
2023-05-21T16:36:38.346Z,9.52
2023-05-21T16:39:05.376Z,7.45
2023-05-21T16:41:32.300Z,6.75
2023-05-21T16:43:59.127Z,9.55
2023-05-21T16:46:26.047Z,9.05
2023-05-21T16:48:53.047Z,7.82
2023-05-21T16:51:19.918Z,9.07
2023-05-21T16:53:46.879Z,7.25
2023-05-21T16:56:13.755Z,9.15
2023-05-21T16:58:40.696Z,8.43
2023-05-21T17:01:07.733Z,8.20
2023-05-21T17:03:34.784Z,7.03
2023-05-21T17:06:01.737Z,6.93
2023-05-21T17:08:28.590Z,9.05
2023-05-21T17:10:55.983Z,9.50
2023-05-21T17:13:23.401Z,9.73
2023-05-21T17:15:51.245Z,8.02
2023-05-21T17:18:18.290Z,7.40
2023-05-21T17:20:45.270Z,9.48
2023-05-21T17:23:12.321Z,8.40
2023-05-21T17:25:39.889Z,8.50
2023-05-21T17:28:07.175Z,9.45
2023-05-21T17:30:34.246Z,8.20
2023-05-21T17:33:03.708Z,7.55
2023-05-21T17:35:34.104Z,8.65
2023-05-21T17:38:01.154Z,8.55
2023-05-21T17:40:29.180Z,8.43
2023-05-21T17:42:56.089Z,9.80
2023-05-21T17:45:23.095Z,7.25
2023-05-21T17:47:50.164Z,9.57
2023-05-21T17:50:17.072Z,8.93
2023-05-21T17:52:43.955Z,6.72
2023-05-21T17:55:10.866Z,8.25
2023-05-21T17:57:37.765Z,9.68
2023-05-21T18:00:06.756Z,8.20
2023-05-21T18:02:38.881Z,7.75
2023-05-21T18:05:05.950Z,9.95
2023-05-21T18:07:32.855Z,7.95
2023-05-21T18:09:59.731Z,7.05
2023-05-21T18:12:26.712Z,8.32
2023-05-21T18:14:53.576Z,7.55
2023-05-21T18:17:20.634Z,9.88
2023-05-21T18:19:47.484Z,7.40
2023-05-21T18:22:14.469Z,12.38
2023-05-21T18:24:41.380Z,7.38
2023-05-21T18:27:08.230Z,7.40
2023-05-21T18:29:35.117Z,8.10
2023-05-21T18:32:02.209Z,7.28
2023-05-21T18:34:29.143Z,8.70
2023-05-21T18:36:58.685Z,10.50
2023-05-21T18:39:27.708Z,6.90
2023-05-21T18:42:11.368Z,8.18
2023-05-21T18:44:39.598Z,7.50
2023-05-21T18:47:07.606Z,7.93
2023-05-21T18:49:36.114Z,7.53
2023-05-21T18:52:04.121Z,9.68
2023-05-21T18:54:31.209Z,7.63
2023-05-21T18:57:01.040Z,12.27
2023-05-21T18:59:28.604Z,9.60
2023-05-21T19:01:55.515Z,9.00
2023-05-21T19:04:22.542Z,8.35
2023-05-21T19:06:49.508Z,9.35
2023-05-21T19:09:16.609Z,7.57
2023-05-21T19:11:43.527Z,8.55
2023-05-21T19:14:10.668Z,6.93
2023-05-21T19:16:37.614Z,8.13
2023-05-21T19:19:04.667Z,6.60
2023-05-21T19:21:32.293Z,8.93
2023-05-21T19:23:59.230Z,9.55
2023-05-21T19:26:26.141Z,7.30
2023-05-21T19:28:54.429Z,8.82
2023-05-21T19:31:22.347Z,10.00
2023-05-21T19:33:49.422Z,9.40
2023-05-21T19:36:16.464Z,9.13
2023-05-21T19:38:49.862Z,9.35
2023-05-21T19:41:17.336Z,12.48
2023-05-21T19:43:44.885Z,8.05
2023-05-21T19:46:11.911Z,8.63
2023-05-21T19:48:38.980Z,7.38
2023-05-21T19:51:05.972Z,8.50
2023-05-21T19:53:32.830Z,9.20
2023-05-21T19:55:59.902Z,9.85
2023-05-21T19:58:29.519Z,9.13
2023-05-21T20:00:59.188Z,8.00
2023-05-21T20:03:26.835Z,8.55
2023-05-21T20:05:54.319Z,12.00
2023-05-21T20:08:21.477Z,8.18
2023-05-21T20:10:51.308Z,7.38
2023-05-21T20:13:19.198Z,8.52
2023-05-21T20:15:47.817Z,6.72
2023-05-21T20:18:15.591Z,11.07
2023-05-21T20:20:43.105Z,6.50
2023-05-21T20:23:10.042Z,9.60
2023-05-21T20:25:36.886Z,7.63
2023-05-21T20:28:05.086Z,8.70
2023-05-21T20:30:35.961Z,6.47
2023-05-21T20:33:03.250Z,7.25
2023-05-21T20:35:30.294Z,7.55
2023-05-21T20:37:57.333Z,8.52
2023-05-21T20:40:24.202Z,7.85
2023-05-21T20:42:53.446Z,6.63
2023-05-21T20:45:21.146Z,7.80
2023-05-21T20:47:49.977Z,8.15
2023-05-21T20:50:21.657Z,7.82
2023-05-21T20:52:48.473Z,7.38
2023-05-21T20:55:15.359Z,6.50
2023-05-21T20:57:42.383Z,6.63
2023-05-21T21:00:11.884Z,8.68
2023-05-21T21:02:39.233Z,8.20
2023-05-21T21:05:10.123Z,7.38
2023-05-21T21:07:37.411Z,8.10
2023-05-21T21:10:04.772Z,6.82
2023-05-21T21:12:31.618Z,10.93
2023-05-21T21:14:58.499Z,7.45
2023-05-21T21:17:25.497Z,7.53
2023-05-21T21:19:52.459Z,7.07
2023-05-21T21:22:19.402Z,7.95
2023-05-21T21:24:46.897Z,6.85
2023-05-21T21:27:13.733Z,6.30
2023-05-21T21:29:40.702Z,9.38
2023-05-21T21:32:07.855Z,6.97
2023-05-21T21:34:34.777Z,5.82
2023-05-21T21:37:01.627Z,9.75
2023-05-21T21:39:28.503Z,7.47
2023-05-21T21:41:55.485Z,7.38
2023-05-21T21:44:22.375Z,8.27
2023-05-21T21:46:49.540Z,8.23
2023-05-21T21:49:19.333Z,9.00
2023-05-21T21:51:46.314Z,7.97
2023-05-21T21:54:13.194Z,8.77
2023-05-21T21:56:40.133Z,9.70
2023-05-21T21:59:06.988Z,6.90
2023-05-21T22:01:34.041Z,9.05
2023-05-21T22:04:01.082Z,7.85
2023-05-21T22:06:28.672Z,7.15
2023-05-21T22:08:55.778Z,6.28
2023-05-21T22:11:22.824Z,7.63
2023-05-21T22:13:49.711Z,7.05
2023-05-21T22:16:16.671Z,7.90
2023-05-21T22:18:43.718Z,7.45
2023-05-21T22:21:14.190Z,8.82
2023-05-21T22:23:41.472Z,6.10
2023-05-21T22:26:09.148Z,7.47
2023-05-21T22:28:36.145Z,6.30
2023-05-21T22:31:03.356Z,8.38
2023-05-21T22:33:30.544Z,8.05
2023-05-21T22:35:58.087Z,8.05
2023-05-21T22:38:25.142Z,7.15
2023-05-21T22:40:51.999Z,8.40
2023-05-21T22:43:18.953Z,10.93
2023-05-21T22:45:46.425Z,9.07
2023-05-21T22:48:14.332Z,9.13
2023-05-21T22:50:41.473Z,7.53
2023-05-21T22:53:08.528Z,9.38
2023-05-21T22:55:35.405Z,7.95
2023-05-21T22:58:02.442Z,7.75
2023-05-21T23:00:29.293Z,7.07
2023-05-21T23:02:56.319Z,9.23
2023-05-21T23:05:23.249Z,10.95
2023-05-21T23:07:50.159Z,8.82
2023-05-21T23:10:17.131Z,9.20
2023-05-21T23:12:44.058Z,8.40
2023-05-21T23:15:11.247Z,10.10
2023-05-21T23:17:38.679Z,7.68
2023-05-21T23:20:09.262Z,11.25
2023-05-21T23:22:36.759Z,8.93
2023-05-21T23:25:04.027Z,9.20
2023-05-21T23:27:30.965Z,13.60
2023-05-21T23:29:57.824Z,9.40
2023-05-21T23:32:24.851Z,9.95
2023-05-21T23:34:51.728Z,11.18
2023-05-21T23:37:19.170Z,10.18
2023-05-21T23:39:49.465Z,7.53
2023-05-21T23:42:17.092Z,11.18
2023-05-21T23:44:44.066Z,8.85
2023-05-21T23:47:11.022Z,7.30
2023-05-21T23:49:38.902Z,10.85
2023-05-21T23:52:06.256Z,10.00
2023-05-21T23:54:33.199Z,10.70
2023-05-21T23:57:00.052Z,8.52
2023-05-21T23:59:26.925Z,8.48
